sensor_id;sensor_type;location;lat;lon;timestamp;P1;durP1;ratioP1;P2;durP2;ratioP2
23140;SDS011;11739;54.750;9.124;2023-06-14T00:00:11;2.40;;;1.92;;
23140;SDS011;11739;54.750;9.124;2023-06-14T00:02:40;2.97;;;1.85;;
23140;SDS011;11739;54.750;9.124;2023-06-14T00:05:05;3.90;;;2.00;;
23140;SDS011;11739;54.750;9.124;2023-06-14T00:07:35;5.88;;;2.03;;
23140;SDS011;11739;54.750;9.124;2023-06-14T00:10:01;2.45;;;1.70;;
23140;SDS011;11739;54.750;9.124;2023-06-14T00:12:27;3.22;;;1.70;;
23140;SDS011;11739;54.750;9.124;2023-06-14T00:14:53;2.53;;;1.90;;
23140;SDS011;11739;54.750;9.124;2023-06-14T00:17:18;2.85;;;2.25;;
23140;SDS011;11739;54.750;9.124;2023-06-14T00:19:43;2.05;;;1.70;;
23140;SDS011;11739;54.750;9.124;2023-06-14T00:22:09;2.60;;;1.73;;
23140;SDS011;11739;54.750;9.124;2023-06-14T00:24:34;1.92;;;1.80;;
23140;SDS011;11739;54.750;9.124;2023-06-14T00:26:59;3.38;;;1.92;;
23140;SDS011;11739;54.750;9.124;2023-06-14T00:29:24;2.65;;;1.80;;
23140;SDS011;11739;54.750;9.124;2023-06-14T00:31:50;3.80;;;1.88;;
23140;SDS011;11739;54.750;9.124;2023-06-14T00:34:15;2.70;;;1.65;;
23140;SDS011;11739;54.750;9.124;2023-06-14T00:36:40;5.72;;;2.10;;
23140;SDS011;11739;54.750;9.124;2023-06-14T00:39:06;3.15;;;1.98;;
23140;SDS011;11739;54.750;9.124;2023-06-14T00:41:31;2.92;;;1.88;;
23140;SDS011;11739;54.750;9.124;2023-06-14T00:43:56;2.38;;;1.80;;
23140;SDS011;11739;54.750;9.124;2023-06-14T00:46:22;2.10;;;1.52;;
23140;SDS011;11739;54.750;9.124;2023-06-14T00:48:47;2.55;;;1.83;;
23140;SDS011;11739;54.750;9.124;2023-06-14T00:51:13;2.15;;;1.65;;
23140;SDS011;11739;54.750;9.124;2023-06-14T00:53:38;3.15;;;2.05;;
23140;SDS011;11739;54.750;9.124;2023-06-14T00:56:03;1.75;;;1.65;;
23140;SDS011;11739;54.750;9.124;2023-06-14T00:58:29;2.20;;;2.00;;
23140;SDS011;11739;54.750;9.124;2023-06-14T01:00:54;2.42;;;1.50;;
23140;SDS011;11739;54.750;9.124;2023-06-14T01:03:19;2.50;;;1.88;;
23140;SDS011;11739;54.750;9.124;2023-06-14T01:05:45;2.00;;;1.73;;
23140;SDS011;11739;54.750;9.124;2023-06-14T01:08:14;2.00;;;1.80;;
23140;SDS011;11739;54.750;9.124;2023-06-14T01:13:29;2.85;;;1.92;;
23140;SDS011;11739;54.750;9.124;2023-06-14T01:15:59;3.63;;;1.80;;
23140;SDS011;11739;54.750;9.124;2023-06-14T01:18:24;2.35;;;1.70;;
23140;SDS011;11739;54.750;9.124;2023-06-14T01:20:49;1.75;;;1.65;;
23140;SDS011;11739;54.750;9.124;2023-06-14T01:23:16;2.20;;;1.80;;
23140;SDS011;11739;54.750;9.124;2023-06-14T01:25:42;1.85;;;1.70;;
23140;SDS011;11739;54.750;9.124;2023-06-14T01:28:07;2.53;;;1.80;;
23140;SDS011;11739;54.750;9.124;2023-06-14T01:30:32;4.70;;;1.77;;
23140;SDS011;11739;54.750;9.124;2023-06-14T01:32:58;1.90;;;1.80;;
23140;SDS011;11739;54.750;9.124;2023-06-14T01:35:23;1.67;;;1.58;;
23140;SDS011;11739;54.750;9.124;2023-06-14T01:37:49;2.20;;;1.90;;
23140;SDS011;11739;54.750;9.124;2023-06-14T01:40:15;4.07;;;2.30;;
23140;SDS011;11739;54.750;9.124;2023-06-14T01:42:41;2.22;;;1.90;;
23140;SDS011;11739;54.750;9.124;2023-06-14T01:45:07;2.20;;;2.00;;
23140;SDS011;11739;54.750;9.124;2023-06-14T01:47:33;2.35;;;1.40;;
23140;SDS011;11739;54.750;9.124;2023-06-14T01:49:59;1.90;;;1.70;;
23140;SDS011;11739;54.750;9.124;2023-06-14T01:52:24;2.17;;;1.75;;
23140;SDS011;11739;54.750;9.124;2023-06-14T01:54:50;1.60;;;1.50;;
23140;SDS011;11739;54.750;9.124;2023-06-14T01:57:15;2.17;;;1.80;;
23140;SDS011;11739;54.750;9.124;2023-06-14T01:59:41;2.20;;;1.70;;
23140;SDS011;11739;54.750;9.124;2023-06-14T02:02:06;2.10;;;1.85;;
23140;SDS011;11739;54.750;9.124;2023-06-14T02:04:31;1.98;;;1.75;;
23140;SDS011;11739;54.750;9.124;2023-06-14T02:06:56;2.00;;;1.80;;
23140;SDS011;11739;54.750;9.124;2023-06-14T02:09:22;2.22;;;1.80;;
23140;SDS011;11739;54.750;9.124;2023-06-14T02:11:47;2.72;;;2.00;;
23140;SDS011;11739;54.750;9.124;2023-06-14T02:14:12;2.80;;;1.88;;
23140;SDS011;11739;54.750;9.124;2023-06-14T02:16:38;2.38;;;1.70;;
23140;SDS011;11739;54.750;9.124;2023-06-14T02:19:03;2.25;;;2.05;;
23140;SDS011;11739;54.750;9.124;2023-06-14T02:21:28;2.83;;;1.63;;
23140;SDS011;11739;54.750;9.124;2023-06-14T02:23:54;1.70;;;1.50;;
23140;SDS011;11739;54.750;9.124;2023-06-14T02:26:19;1.70;;;1.60;;
23140;SDS011;11739;54.750;9.124;2023-06-14T02:28:44;1.70;;;1.50;;
23140;SDS011;11739;54.750;9.124;2023-06-14T02:31:09;1.83;;;1.50;;
23140;SDS011;11739;54.750;9.124;2023-06-14T02:33:35;1.90;;;1.70;;
23140;SDS011;11739;54.750;9.124;2023-06-14T02:36:00;2.35;;;1.80;;
23140;SDS011;11739;54.750;9.124;2023-06-14T02:38:26;4.18;;;1.67;;
23140;SDS011;11739;54.750;9.124;2023-06-14T02:40:51;1.83;;;1.70;;
23140;SDS011;11739;54.750;9.124;2023-06-14T02:43:17;1.90;;;1.70;;
23140;SDS011;11739;54.750;9.124;2023-06-14T02:45:42;1.90;;;1.70;;
23140;SDS011;11739;54.750;9.124;2023-06-14T02:48:07;3.42;;;1.70;;
23140;SDS011;11739;54.750;9.124;2023-06-14T02:50:33;2.47;;;1.60;;
23140;SDS011;11739;54.750;9.124;2023-06-14T02:52:58;6.60;;;1.88;;
23140;SDS011;11739;54.750;9.124;2023-06-14T02:55:23;2.03;;;1.70;;
23140;SDS011;11739;54.750;9.124;2023-06-14T02:57:49;3.90;;;1.80;;
23140;SDS011;11739;54.750;9.124;2023-06-14T03:00:14;4.20;;;1.58;;
23140;SDS011;11739;54.750;9.124;2023-06-14T03:02:39;2.03;;;1.60;;
23140;SDS011;11739;54.750;9.124;2023-06-14T03:05:05;2.33;;;1.70;;
23140;SDS011;11739;54.750;9.124;2023-06-14T03:07:30;2.00;;;1.80;;
23140;SDS011;11739;54.750;9.124;2023-06-14T03:09:56;2.15;;;1.80;;
23140;SDS011;11739;54.750;9.124;2023-06-14T03:12:21;2.28;;;2.08;;
23140;SDS011;11739;54.750;9.124;2023-06-14T03:14:46;2.55;;;2.25;;
23140;SDS011;11739;54.750;9.124;2023-06-14T03:17:12;2.13;;;1.40;;
23140;SDS011;11739;54.750;9.124;2023-06-14T03:19:37;2.90;;;1.80;;
23140;SDS011;11739;54.750;9.124;2023-06-14T03:22:02;3.10;;;1.73;;
23140;SDS011;11739;54.750;9.124;2023-06-14T03:24:28;2.05;;;1.85;;
23140;SDS011;11739;54.750;9.124;2023-06-14T03:26:53;2.40;;;1.88;;
23140;SDS011;11739;54.750;9.124;2023-06-14T03:29:18;3.50;;;1.80;;
23140;SDS011;11739;54.750;9.124;2023-06-14T03:32:00;3.85;;;1.70;;
23140;SDS011;11739;54.750;9.124;2023-06-14T03:34:26;3.42;;;1.77;;
23140;SDS011;11739;54.750;9.124;2023-06-14T03:36:51;1.80;;;1.70;;
23140;SDS011;11739;54.750;9.124;2023-06-14T03:39:17;2.15;;;1.80;;
23140;SDS011;11739;54.750;9.124;2023-06-14T03:41:42;2.65;;;1.75;;
23140;SDS011;11739;54.750;9.124;2023-06-14T03:44:07;1.80;;;1.70;;
23140;SDS011;11739;54.750;9.124;2023-06-14T03:46:32;1.80;;;1.70;;
23140;SDS011;11739;54.750;9.124;2023-06-14T03:48:58;2.88;;;2.05;;
23140;SDS011;11739;54.750;9.124;2023-06-14T03:51:23;2.88;;;1.80;;
23140;SDS011;11739;54.750;9.124;2023-06-14T03:53:48;2.05;;;1.85;;
23140;SDS011;11739;54.750;9.124;2023-06-14T03:56:14;2.10;;;1.90;;
23140;SDS011;11739;54.750;9.124;2023-06-14T03:58:39;2.28;;;2.08;;
23140;SDS011;11739;54.750;9.124;2023-06-14T04:01:05;1.85;;;1.70;;
23140;SDS011;11739;54.750;9.124;2023-06-14T04:03:30;3.28;;;1.90;;
23140;SDS011;11739;54.750;9.124;2023-06-14T04:05:55;2.10;;;1.80;;
23140;SDS011;11739;54.750;9.124;2023-06-14T04:08:21;2.60;;;1.80;;
23140;SDS011;11739;54.750;9.124;2023-06-14T04:10:46;2.40;;;1.83;;
23140;SDS011;11739;54.750;9.124;2023-06-14T04:13:11;2.50;;;1.90;;
23140;SDS011;11739;54.750;9.124;2023-06-14T04:15:36;2.22;;;1.88;;
23140;SDS011;11739;54.750;9.124;2023-06-14T04:18:02;2.85;;;1.90;;
23140;SDS011;11739;54.750;9.124;2023-06-14T04:20:27;1.70;;;1.60;;
23140;SDS011;11739;54.750;9.124;2023-06-14T04:22:52;3.60;;;1.80;;
23140;SDS011;11739;54.750;9.124;2023-06-14T04:25:18;3.47;;;1.80;;
23140;SDS011;11739;54.750;9.124;2023-06-14T04:27:43;5.47;;;2.08;;
23140;SDS011;11739;54.750;9.124;2023-06-14T04:30:09;3.95;;;2.03;;
23140;SDS011;11739;54.750;9.124;2023-06-14T04:32:34;2.92;;;1.85;;
23140;SDS011;11739;54.750;9.124;2023-06-14T04:34:59;2.80;;;1.80;;
23140;SDS011;11739;54.750;9.124;2023-06-14T04:37:25;2.72;;;1.80;;
23140;SDS011;11739;54.750;9.124;2023-06-14T04:39:50;1.92;;;1.65;;
23140;SDS011;11739;54.750;9.124;2023-06-14T04:42:16;3.17;;;2.13;;
23140;SDS011;11739;54.750;9.124;2023-06-14T04:44:41;1.80;;;1.50;;
23140;SDS011;11739;54.750;9.124;2023-06-14T04:47:07;2.35;;;2.15;;
23140;SDS011;11739;54.750;9.124;2023-06-14T04:49:32;2.35;;;2.05;;
23140;SDS011;11739;54.750;9.124;2023-06-14T04:51:58;2.25;;;1.80;;
23140;SDS011;11739;54.750;9.124;2023-06-14T04:54:23;2.08;;;1.80;;
23140;SDS011;11739;54.750;9.124;2023-06-14T04:56:48;2.58;;;1.95;;
23140;SDS011;11739;54.750;9.124;2023-06-14T04:59:14;2.40;;;2.20;;
23140;SDS011;11739;54.750;9.124;2023-06-14T05:01:39;2.88;;;1.95;;
23140;SDS011;11739;54.750;9.124;2023-06-14T05:04:04;2.38;;;2.03;;
23140;SDS011;11739;54.750;9.124;2023-06-14T05:06:30;2.83;;;2.20;;
23140;SDS011;11739;54.750;9.124;2023-06-14T05:08:55;2.40;;;2.03;;
23140;SDS011;11739;54.750;9.124;2023-06-14T05:11:20;2.20;;;2.00;;
23140;SDS011;11739;54.750;9.124;2023-06-14T05:13:46;4.53;;;2.28;;
23140;SDS011;11739;54.750;9.124;2023-06-14T05:16:11;3.17;;;2.10;;
23140;SDS011;11739;54.750;9.124;2023-06-14T05:18:37;2.72;;;2.30;;
23140;SDS011;11739;54.750;9.124;2023-06-14T05:21:02;2.20;;;2.00;;
23140;SDS011;11739;54.750;9.124;2023-06-14T05:23:27;3.35;;;1.95;;
23140;SDS011;11739;54.750;9.124;2023-06-14T05:25:53;5.10;;;2.50;;
23140;SDS011;11739;54.750;9.124;2023-06-14T05:28:18;2.95;;;2.20;;
23140;SDS011;11739;54.750;9.124;2023-06-14T05:30:43;3.22;;;2.05;;
23140;SDS011;11739;54.750;9.124;2023-06-14T05:33:08;2.42;;;1.98;;
23140;SDS011;11739;54.750;9.124;2023-06-14T05:35:34;4.55;;;2.13;;
23140;SDS011;11739;54.750;9.124;2023-06-14T05:37:59;3.33;;;1.95;;
23140;SDS011;11739;54.750;9.124;2023-06-14T05:40:24;2.50;;;2.30;;
23140;SDS011;11739;54.750;9.124;2023-06-14T05:42:50;2.55;;;2.30;;
23140;SDS011;11739;54.750;9.124;2023-06-14T05:45:15;3.05;;;2.38;;
23140;SDS011;11739;54.750;9.124;2023-06-14T05:47:40;4.68;;;2.25;;
23140;SDS011;11739;54.750;9.124;2023-06-14T05:50:06;2.88;;;2.40;;
23140;SDS011;11739;54.750;9.124;2023-06-14T05:52:31;2.42;;;2.20;;
23140;SDS011;11739;54.750;9.124;2023-06-14T05:54:56;6.07;;;2.42;;
23140;SDS011;11739;54.750;9.124;2023-06-14T05:57:22;2.20;;;2.00;;
23140;SDS011;11739;54.750;9.124;2023-06-14T05:59:47;3.00;;;2.50;;
23140;SDS011;11739;54.750;9.124;2023-06-14T06:02:12;2.58;;;2.28;;
23140;SDS011;11739;54.750;9.124;2023-06-14T06:04:37;3.17;;;2.28;;
23140;SDS011;11739;54.750;9.124;2023-06-14T06:07:03;2.58;;;1.95;;
23140;SDS011;11739;54.750;9.124;2023-06-14T06:09:28;3.60;;;2.53;;
23140;SDS011;11739;54.750;9.124;2023-06-14T06:11:54;2.50;;;2.10;;
23140;SDS011;11739;54.750;9.124;2023-06-14T06:14:19;2.47;;;2.03;;
23140;SDS011;11739;54.750;9.124;2023-06-14T06:16:44;3.28;;;2.00;;
23140;SDS011;11739;54.750;9.124;2023-06-14T06:19:09;3.53;;;2.20;;
23140;SDS011;11739;54.750;9.124;2023-06-14T06:21:35;3.47;;;2.20;;
23140;SDS011;11739;54.750;9.124;2023-06-14T06:24:00;4.25;;;2.17;;
23140;SDS011;11739;54.750;9.124;2023-06-14T06:26:25;3.78;;;2.00;;
23140;SDS011;11739;54.750;9.124;2023-06-14T06:28:51;2.67;;;2.17;;
23140;SDS011;11739;54.750;9.124;2023-06-14T06:31:16;2.55;;;2.22;;
23140;SDS011;11739;54.750;9.124;2023-06-14T06:33:41;3.25;;;2.20;;
23140;SDS011;11739;54.750;9.124;2023-06-14T06:36:07;2.45;;;2.13;;
23140;SDS011;11739;54.750;9.124;2023-06-14T06:38:32;3.42;;;1.95;;
23140;SDS011;11739;54.750;9.124;2023-06-14T06:40:57;5.25;;;2.08;;
23140;SDS011;11739;54.750;9.124;2023-06-14T06:43:22;4.05;;;2.28;;
23140;SDS011;11739;54.750;9.124;2023-06-14T06:45:48;2.75;;;2.10;;
23140;SDS011;11739;54.750;9.124;2023-06-14T06:48:13;2.60;;;2.08;;
23140;SDS011;11739;54.750;9.124;2023-06-14T06:50:38;2.55;;;2.20;;
23140;SDS011;11739;54.750;9.124;2023-06-14T06:53:04;3.78;;;1.83;;
23140;SDS011;11739;54.750;9.124;2023-06-14T06:55:29;4.43;;;2.30;;
23140;SDS011;11739;54.750;9.124;2023-06-14T06:57:55;6.70;;;2.50;;
23140;SDS011;11739;54.750;9.124;2023-06-14T07:00:20;4.63;;;2.85;;
23140;SDS011;11739;54.750;9.124;2023-06-14T07:02:46;4.28;;;2.00;;
23140;SDS011;11739;54.750;9.124;2023-06-14T07:05:11;3.03;;;2.10;;
23140;SDS011;11739;54.750;9.124;2023-06-14T07:07:37;3.45;;;2.13;;
23140;SDS011;11739;54.750;9.124;2023-06-14T07:10:02;3.38;;;2.08;;
23140;SDS011;11739;54.750;9.124;2023-06-14T07:12:28;3.92;;;2.65;;
23140;SDS011;11739;54.750;9.124;2023-06-14T07:14:53;4.93;;;1.85;;
23140;SDS011;11739;54.750;9.124;2023-06-14T07:17:19;3.88;;;2.38;;
23140;SDS011;11739;54.750;9.124;2023-06-14T07:19:44;8.00;;;2.63;;
23140;SDS011;11739;54.750;9.124;2023-06-14T07:22:09;5.70;;;2.45;;
23140;SDS011;11739;54.750;9.124;2023-06-14T07:24:34;4.15;;;2.60;;
23140;SDS011;11739;54.750;9.124;2023-06-14T07:27:00;2.42;;;2.03;;
23140;SDS011;11739;54.750;9.124;2023-06-14T07:29:25;2.60;;;2.20;;
23140;SDS011;11739;54.750;9.124;2023-06-14T07:31:50;2.25;;;2.05;;
23140;SDS011;11739;54.750;9.124;2023-06-14T07:34:16;3.58;;;2.20;;
23140;SDS011;11739;54.750;9.124;2023-06-14T07:36:41;5.18;;;2.30;;
23140;SDS011;11739;54.750;9.124;2023-06-14T07:39:06;3.30;;;2.03;;
23140;SDS011;11739;54.750;9.124;2023-06-14T07:41:32;2.25;;;2.05;;
23140;SDS011;11739;54.750;9.124;2023-06-14T07:43:57;2.50;;;2.30;;
23140;SDS011;11739;54.750;9.124;2023-06-14T07:46:23;3.03;;;2.38;;
23140;SDS011;11739;54.750;9.124;2023-06-14T07:48:48;2.67;;;2.00;;
23140;SDS011;11739;54.750;9.124;2023-06-14T07:51:13;3.15;;;2.50;;
23140;SDS011;11739;54.750;9.124;2023-06-14T07:53:38;6.60;;;2.70;;
23140;SDS011;11739;54.750;9.124;2023-06-14T07:56:04;4.85;;;2.75;;
23140;SDS011;11739;54.750;9.124;2023-06-14T07:58:29;3.47;;;2.30;;
23140;SDS011;11739;54.750;9.124;2023-06-14T08:00:54;2.83;;;2.45;;
23140;SDS011;11739;54.750;9.124;2023-06-14T08:03:20;3.97;;;2.58;;
23140;SDS011;11739;54.750;9.124;2023-06-14T08:05:45;4.40;;;2.35;;
23140;SDS011;11739;54.750;9.124;2023-06-14T08:08:10;5.93;;;2.20;;
23140;SDS011;11739;54.750;9.124;2023-06-14T08:10:36;3.50;;;2.05;;
23140;SDS011;11739;54.750;9.124;2023-06-14T08:13:01;3.75;;;2.17;;
23140;SDS011;11739;54.750;9.124;2023-06-14T08:15:26;2.88;;;2.20;;
23140;SDS011;11739;54.750;9.124;2023-06-14T08:17:51;4.32;;;2.40;;
23140;SDS011;11739;54.750;9.124;2023-06-14T08:20:17;2.38;;;2.17;;
23140;SDS011;11739;54.750;9.124;2023-06-14T08:22:42;6.05;;;2.80;;
23140;SDS011;11739;54.750;9.124;2023-06-14T08:25:08;2.55;;;2.25;;
23140;SDS011;11739;54.750;9.124;2023-06-14T08:27:33;5.78;;;2.30;;
23140;SDS011;11739;54.750;9.124;2023-06-14T08:29:58;2.38;;;2.17;;
23140;SDS011;11739;54.750;9.124;2023-06-14T08:32:24;5.43;;;2.42;;
23140;SDS011;11739;54.750;9.124;2023-06-14T08:34:49;3.83;;;2.42;;
23140;SDS011;11739;54.750;9.124;2023-06-14T08:37:14;2.83;;;2.17;;
23140;SDS011;11739;54.750;9.124;2023-06-14T08:39:40;7.40;;;2.20;;
23140;SDS011;11739;54.750;9.124;2023-06-14T08:42:05;3.60;;;2.30;;
23140;SDS011;11739;54.750;9.124;2023-06-14T08:44:32;3.30;;;2.13;;
23140;SDS011;11739;54.750;9.124;2023-06-14T08:46:57;3.53;;;2.63;;
23140;SDS011;11739;54.750;9.124;2023-06-14T08:49:24;5.20;;;2.50;;
23140;SDS011;11739;54.750;9.124;2023-06-14T08:51:50;2.40;;;2.20;;
23140;SDS011;11739;54.750;9.124;2023-06-14T08:54:19;3.65;;;2.25;;
23140;SDS011;11739;54.750;9.124;2023-06-14T08:56:44;2.63;;;2.08;;
23140;SDS011;11739;54.750;9.124;2023-06-14T08:59:10;3.08;;;2.38;;
23140;SDS011;11739;54.750;9.124;2023-06-14T09:01:36;3.78;;;2.33;;
23140;SDS011;11739;54.750;9.124;2023-06-14T09:04:02;5.10;;;2.55;;
23140;SDS011;11739;54.750;9.124;2023-06-14T09:06:28;3.25;;;2.25;;
23140;SDS011;11739;54.750;9.124;2023-06-14T09:08:54;4.38;;;2.70;;
23140;SDS011;11739;54.750;9.124;2023-06-14T09:11:19;5.13;;;2.38;;
23140;SDS011;11739;54.750;9.124;2023-06-14T09:13:45;3.03;;;2.25;;
23140;SDS011;11739;54.750;9.124;2023-06-14T09:16:11;6.07;;;2.50;;
23140;SDS011;11739;54.750;9.124;2023-06-14T09:18:38;4.53;;;2.50;;
23140;SDS011;11739;54.750;9.124;2023-06-14T09:21:08;2.95;;;2.03;;
23140;SDS011;11739;54.750;9.124;2023-06-14T09:23:51;5.18;;;2.42;;
23140;SDS011;11739;54.750;9.124;2023-06-14T09:26:17;2.80;;;2.53;;
23140;SDS011;11739;54.750;9.124;2023-06-14T09:28:43;3.95;;;2.58;;
23140;SDS011;11739;54.750;9.124;2023-06-14T09:31:10;4.75;;;2.45;;
23140;SDS011;11739;54.750;9.124;2023-06-14T09:33:35;6.68;;;2.30;;
23140;SDS011;11739;54.750;9.124;2023-06-14T09:36:01;3.60;;;2.35;;
23140;SDS011;11739;54.750;9.124;2023-06-14T09:38:26;7.30;;;2.50;;
23140;SDS011;11739;54.750;9.124;2023-06-14T09:40:51;3.92;;;2.47;;
23140;SDS011;11739;54.750;9.124;2023-06-14T09:43:17;6.72;;;2.30;;
23140;SDS011;11739;54.750;9.124;2023-06-14T09:45:42;5.65;;;2.30;;
23140;SDS011;11739;54.750;9.124;2023-06-14T09:48:08;5.50;;;2.30;;
23140;SDS011;11739;54.750;9.124;2023-06-14T09:50:34;4.47;;;2.40;;
23140;SDS011;11739;54.750;9.124;2023-06-14T09:53:02;2.33;;;2.10;;
23140;SDS011;11739;54.750;9.124;2023-06-14T09:55:30;3.78;;;2.50;;
23140;SDS011;11739;54.750;9.124;2023-06-14T09:57:56;3.53;;;2.28;;
23140;SDS011;11739;54.750;9.124;2023-06-14T10:00:21;3.92;;;2.20;;
23140;SDS011;11739;54.750;9.124;2023-06-14T10:02:49;3.35;;;2.08;;
23140;SDS011;11739;54.750;9.124;2023-06-14T10:05:19;6.13;;;2.13;;
23140;SDS011;11739;54.750;9.124;2023-06-14T10:07:48;3.10;;;2.00;;
23140;SDS011;11739;54.750;9.124;2023-06-14T10:10:18;4.18;;;2.13;;
23140;SDS011;11739;54.750;9.124;2023-06-14T10:12:43;4.40;;;2.20;;
23140;SDS011;11739;54.750;9.124;2023-06-14T10:15:15;5.28;;;2.42;;
23140;SDS011;11739;54.750;9.124;2023-06-14T10:17:48;3.75;;;1.83;;
23140;SDS011;11739;54.750;9.124;2023-06-14T10:20:27;5.15;;;1.92;;
23140;SDS011;11739;54.750;9.124;2023-06-14T10:23:03;2.53;;;2.10;;
23140;SDS011;11739;54.750;9.124;2023-06-14T10:25:33;3.05;;;1.90;;
23140;SDS011;11739;54.750;9.124;2023-06-14T10:28:17;2.83;;;1.90;;
23140;SDS011;11739;54.750;9.124;2023-06-14T10:31:03;5.38;;;2.00;;
23140;SDS011;11739;54.750;9.124;2023-06-14T10:33:32;2.10;;;1.85;;
23140;SDS011;11739;54.750;9.124;2023-06-14T10:38:57;1.92;;;1.70;;
23140;SDS011;11739;54.750;9.124;2023-06-14T10:41:30;3.38;;;1.88;;
23140;SDS011;11739;54.750;9.124;2023-06-14T10:46:37;4.15;;;1.90;;
23140;SDS011;11739;54.750;9.124;2023-06-14T10:49:02;4.15;;;1.80;;
23140;SDS011;11739;54.750;9.124;2023-06-14T10:51:29;1.85;;;1.75;;
23140;SDS011;11739;54.750;9.124;2023-06-14T10:53:55;4.95;;;2.10;;
23140;SDS011;11739;54.750;9.124;2023-06-14T10:56:28;5.18;;;2.10;;
23140;SDS011;11739;54.750;9.124;2023-06-14T10:58:54;2.90;;;1.90;;
23140;SDS011;11739;54.750;9.124;2023-06-14T11:01:23;3.75;;;1.95;;
23140;SDS011;11739;54.750;9.124;2023-06-14T11:03:56;2.33;;;1.95;;
23140;SDS011;11739;54.750;9.124;2023-06-14T11:06:22;3.53;;;1.80;;
23140;SDS011;11739;54.750;9.124;2023-06-14T11:09:00;2.67;;;1.90;;
23140;SDS011;11739;54.750;9.124;2023-06-14T11:11:33;3.17;;;1.85;;
23140;SDS011;11739;54.750;9.124;2023-06-14T11:13:59;2.55;;;1.75;;
23140;SDS011;11739;54.750;9.124;2023-06-14T11:16:25;2.25;;;1.85;;
23140;SDS011;11739;54.750;9.124;2023-06-14T11:18:51;4.38;;;2.20;;
23140;SDS011;11739;54.750;9.124;2023-06-14T11:21:17;2.47;;;1.80;;
23140;SDS011;11739;54.750;9.124;2023-06-14T11:23:48;3.92;;;1.55;;
23140;SDS011;11739;54.750;9.124;2023-06-14T11:26:14;2.15;;;1.70;;
23140;SDS011;11739;54.750;9.124;2023-06-14T11:28:39;4.65;;;1.90;;
23140;SDS011;11739;54.750;9.124;2023-06-14T11:31:05;2.60;;;1.75;;
23140;SDS011;11739;54.750;9.124;2023-06-14T11:33:31;2.60;;;1.73;;
23140;SDS011;11739;54.750;9.124;2023-06-14T11:35:56;3.60;;;1.85;;
23140;SDS011;11739;54.750;9.124;2023-06-14T11:38:21;4.13;;;1.90;;
23140;SDS011;11739;54.750;9.124;2023-06-14T11:40:47;4.38;;;2.00;;
23140;SDS011;11739;54.750;9.124;2023-06-14T11:43:12;2.80;;;1.80;;
23140;SDS011;11739;54.750;9.124;2023-06-14T11:45:37;2.28;;;1.70;;
23140;SDS011;11739;54.750;9.124;2023-06-14T11:48:03;5.32;;;1.85;;
23140;SDS011;11739;54.750;9.124;2023-06-14T11:50:28;2.33;;;1.70;;
23140;SDS011;11739;54.750;9.124;2023-06-14T11:52:54;2.85;;;1.90;;
23140;SDS011;11739;54.750;9.124;2023-06-14T11:55:19;2.25;;;1.75;;
23140;SDS011;11739;54.750;9.124;2023-06-14T11:57:46;2.55;;;2.15;;
23140;SDS011;11739;54.750;9.124;2023-06-14T12:00:11;2.22;;;1.90;;
23140;SDS011;11739;54.750;9.124;2023-06-14T12:02:37;2.30;;;1.75;;
23140;SDS011;11739;54.750;9.124;2023-06-14T12:05:06;2.75;;;1.88;;
23140;SDS011;11739;54.750;9.124;2023-06-14T12:07:32;3.58;;;1.95;;
23140;SDS011;11739;54.750;9.124;2023-06-14T12:12:23;3.33;;;1.87;;
23140;SDS011;11739;54.750;9.124;2023-06-14T12:14:49;2.03;;;1.80;;
23140;SDS011;11739;54.750;9.124;2023-06-14T12:17:16;3.55;;;1.90;;
23140;SDS011;11739;54.750;9.124;2023-06-14T12:19:42;3.33;;;1.98;;
23140;SDS011;11739;54.750;9.124;2023-06-14T12:22:09;2.88;;;1.67;;
23140;SDS011;11739;54.750;9.124;2023-06-14T12:24:34;2.03;;;1.75;;
23140;SDS011;11739;54.750;9.124;2023-06-14T12:26:59;4.32;;;2.10;;
23140;SDS011;11739;54.750;9.124;2023-06-14T12:29:25;5.13;;;1.90;;
23140;SDS011;11739;54.750;9.124;2023-06-14T12:31:50;2.28;;;2.05;;
23140;SDS011;11739;54.750;9.124;2023-06-14T12:34:16;2.72;;;2.20;;
23140;SDS011;11739;54.750;9.124;2023-06-14T12:36:41;2.08;;;1.73;;
23140;SDS011;11739;54.750;9.124;2023-06-14T12:39:07;8.13;;;2.08;;
23140;SDS011;11739;54.750;9.124;2023-06-14T12:41:32;5.28;;;2.03;;
23140;SDS011;11739;54.750;9.124;2023-06-14T12:43:58;4.38;;;1.95;;
23140;SDS011;11739;54.750;9.124;2023-06-14T12:46:23;3.80;;;1.85;;
23140;SDS011;11739;54.750;9.124;2023-06-14T12:48:48;4.10;;;1.70;;
23140;SDS011;11739;54.750;9.124;2023-06-14T12:51:14;4.28;;;1.80;;
23140;SDS011;11739;54.750;9.124;2023-06-14T12:53:39;2.28;;;1.90;;
23140;SDS011;11739;54.750;9.124;2023-06-14T12:56:04;1.90;;;1.80;;
23140;SDS011;11739;54.750;9.124;2023-06-14T12:58:29;4.00;;;2.08;;
23140;SDS011;11739;54.750;9.124;2023-06-14T13:00:55;4.35;;;2.20;;
23140;SDS011;11739;54.750;9.124;2023-06-14T13:03:20;3.10;;;1.92;;
23140;SDS011;11739;54.750;9.124;2023-06-14T13:05:45;3.58;;;1.70;;
23140;SDS011;11739;54.750;9.124;2023-06-14T13:08:11;3.33;;;1.85;;
23140;SDS011;11739;54.750;9.124;2023-06-14T13:10:36;2.33;;;1.60;;
23140;SDS011;11739;54.750;9.124;2023-06-14T13:13:01;4.40;;;1.90;;
23140;SDS011;11739;54.750;9.124;2023-06-14T13:15:27;1.95;;;1.80;;
23140;SDS011;11739;54.750;9.124;2023-06-14T13:17:52;2.28;;;1.60;;
23140;SDS011;11739;54.750;9.124;2023-06-14T13:20:17;5.55;;;2.10;;
23140;SDS011;11739;54.750;9.124;2023-06-14T13:22:43;1.95;;;1.73;;
23140;SDS011;11739;54.750;9.124;2023-06-14T13:25:08;1.90;;;1.67;;
23140;SDS011;11739;54.750;9.124;2023-06-14T13:27:33;1.58;;;1.48;;
23140;SDS011;11739;54.750;9.124;2023-06-14T13:29:59;3.05;;;1.70;;
23140;SDS011;11739;54.750;9.124;2023-06-14T13:32:24;2.15;;;1.92;;
23140;SDS011;11739;54.750;9.124;2023-06-14T13:34:49;3.97;;;2.00;;
23140;SDS011;11739;54.750;9.124;2023-06-14T13:37:15;6.53;;;2.05;;
23140;SDS011;11739;54.750;9.124;2023-06-14T13:39:40;6.25;;;2.05;;
23140;SDS011;11739;54.750;9.124;2023-06-14T13:42:06;3.20;;;2.05;;
23140;SDS011;11739;54.750;9.124;2023-06-14T13:44:31;3.33;;;1.85;;
23140;SDS011;11739;54.750;9.124;2023-06-14T13:46:57;5.35;;;1.80;;
23140;SDS011;11739;54.750;9.124;2023-06-14T13:49:22;5.88;;;2.15;;
23140;SDS011;11739;54.750;9.124;2023-06-14T13:51:47;3.97;;;1.98;;
23140;SDS011;11739;54.750;9.124;2023-06-14T13:54:13;4.03;;;2.13;;
23140;SDS011;11739;54.750;9.124;2023-06-14T13:56:38;3.88;;;2.30;;
23140;SDS011;11739;54.750;9.124;2023-06-14T13:59:03;5.68;;;2.15;;
23140;SDS011;11739;54.750;9.124;2023-06-14T14:01:29;3.17;;;1.90;;
23140;SDS011;11739;54.750;9.124;2023-06-14T14:03:54;2.90;;;2.00;;
23140;SDS011;11739;54.750;9.124;2023-06-14T14:06:19;6.82;;;1.90;;
23140;SDS011;11739;54.750;9.124;2023-06-14T14:08:45;5.25;;;1.90;;
23140;SDS011;11739;54.750;9.124;2023-06-14T14:11:10;5.03;;;1.90;;
23140;SDS011;11739;54.750;9.124;2023-06-14T14:13:35;4.18;;;1.90;;
23140;SDS011;11739;54.750;9.124;2023-06-14T14:16:01;2.45;;;2.03;;
23140;SDS011;11739;54.750;9.124;2023-06-14T14:18:26;5.43;;;2.00;;
23140;SDS011;11739;54.750;9.124;2023-06-14T14:20:51;7.20;;;2.03;;
23140;SDS011;11739;54.750;9.124;2023-06-14T14:23:16;4.57;;;1.63;;
23140;SDS011;11739;54.750;9.124;2023-06-14T14:25:42;3.47;;;2.25;;
23140;SDS011;11739;54.750;9.124;2023-06-14T14:28:07;3.42;;;1.85;;
23140;SDS011;11739;54.750;9.124;2023-06-14T14:30:32;4.57;;;2.15;;
23140;SDS011;11739;54.750;9.124;2023-06-14T14:32:58;4.53;;;2.17;;
23140;SDS011;11739;54.750;9.124;2023-06-14T14:35:23;3.30;;;2.00;;
23140;SDS011;11739;54.750;9.124;2023-06-14T14:37:48;3.10;;;1.80;;
23140;SDS011;11739;54.750;9.124;2023-06-14T14:40:14;4.60;;;1.95;;
23140;SDS011;11739;54.750;9.124;2023-06-14T14:42:39;2.83;;;1.90;;
23140;SDS011;11739;54.750;9.124;2023-06-14T14:45:04;3.10;;;2.20;;
23140;SDS011;11739;54.750;9.124;2023-06-14T14:47:30;3.47;;;1.90;;
23140;SDS011;11739;54.750;9.124;2023-06-14T14:49:56;3.53;;;2.30;;